createdAt,value
2023-03-12T00:03:40.565Z,98571.38
2023-03-12T00:13:44.320Z,98558.71
2023-03-12T00:23:52.394Z,98549.16
2023-03-12T00:33:56.683Z,98542.23
2023-03-12T00:44:00.456Z,98530.92
2023-03-12T00:54:04.939Z,98517.86
2023-03-12T01:04:09.729Z,98504.06
2023-03-12T01:14:17.063Z,98482.78
2023-03-12T01:24:20.926Z,98478.72
2023-03-12T01:34:24.510Z,98463.37
2023-03-12T01:44:28.742Z,98443.94
2023-03-12T01:54:40.249Z,98442.71
2023-03-12T02:04:46.322Z,98445.38
2023-03-12T02:14:50.417Z,98439.42
2023-03-12T02:25:14.389Z,98440.02
2023-03-12T02:35:18.862Z,98452.42
2023-03-12T02:45:27.321Z,98454.52
2023-03-12T02:55:31.853Z,98456.23
2023-03-12T03:05:37.585Z,98456.14
2023-03-12T03:15:43.902Z,98461.63
2023-03-12T03:25:48.084Z,98471.34
2023-03-12T03:35:52.270Z,98473.88
2023-03-12T03:45:59.553Z,98479.08
2023-03-12T03:56:12.347Z,98481.59
2023-03-12T04:06:20.406Z,98488.41
2023-03-12T04:16:24.991Z,98502.87
2023-03-12T04:26:31.832Z,98512.40
2023-03-12T04:36:35.558Z,98514.62
2023-03-12T04:46:39.700Z,98523.04
2023-03-12T04:56:45.856Z,98522.69
2023-03-12T05:06:49.563Z,98522.48
2023-03-12T05:16:53.392Z,98536.80
2023-03-12T05:26:57.204Z,98544.34
2023-03-12T05:37:01.020Z,98554.45
2023-03-12T05:47:06.630Z,98564.30
2023-03-12T05:57:10.772Z,98577.24
2023-03-12T06:07:16.331Z,98590.98
2023-03-12T06:17:20.004Z,98607.73
2023-03-12T06:27:24.165Z,98609.55
2023-03-12T06:37:28.607Z,98633.95
2023-03-12T06:47:33.052Z,98651.81
2023-03-12T06:57:36.650Z,98649.99
2023-03-12T07:07:40.258Z,98672.02
2023-03-12T07:17:45.877Z,98686.19
2023-03-12T07:27:49.561Z,98696.31
2023-03-12T07:37:53.489Z,98706.04
2023-03-12T07:47:57.563Z,98714.15
2023-03-12T07:58:05.057Z,98729.58
2023-03-12T08:08:10.386Z,98736.45
2023-03-12T08:18:14.721Z,98736.23
2023-03-12T08:28:20.193Z,98754.58
2023-03-12T08:38:26.047Z,98781.21
2023-03-12T08:48:31.507Z,98800.46
2023-03-12T08:58:37.282Z,98798.56
2023-03-12T09:08:41.805Z,98803.92
2023-03-12T09:18:45.780Z,98817.40
2023-03-12T09:28:50.475Z,98817.73
2023-03-12T09:38:55.359Z,98831.73
2023-03-12T09:49:05.949Z,98841.83
2023-03-12T09:59:13.221Z,98850.98
2023-03-12T10:09:25.925Z,98885.38
2023-03-12T10:19:51.148Z,98890.26
2023-03-12T10:29:57.047Z,98906.45
2023-03-12T10:40:02.462Z,98918.42
2023-03-12T10:50:20.867Z,98929.39
2023-03-12T11:00:37.142Z,98931.65
2023-03-12T11:10:47.836Z,98937.63
2023-03-12T11:21:24.578Z,98948.88
2023-03-12T11:31:34.372Z,98974.91
2023-03-12T11:41:44.162Z,98994.93
2023-03-12T11:52:07.788Z,98991.34
2023-03-12T12:02:37.994Z,99019.17
2023-03-12T12:12:49.568Z,99023.83
2023-03-12T12:23:23.410Z,99043.30
2023-03-12T12:33:41.947Z,99054.64
2023-03-12T12:44:17.617Z,99067.16
2023-03-12T12:54:59.682Z,99062.34
2023-03-12T13:05:03.401Z,99086.54
2023-03-12T13:15:34.943Z,99092.67
2023-03-12T13:26:06.057Z,99128.13
2023-03-12T13:37:18.529Z,99140.10
2023-03-12T13:47:34.332Z,99154.54
2023-03-12T13:57:53.272Z,99172.64
2023-03-12T14:08:26.686Z,99182.63
2023-03-12T14:18:34.890Z,99191.16
2023-03-12T14:28:41.614Z,99199.30
2023-03-12T14:38:49.254Z,99206.96
2023-03-12T14:48:57.554Z,99213.16
2023-03-12T14:59:33.885Z,99221.14
2023-03-12T15:09:37.677Z,99227.98
2023-03-12T15:19:42.827Z,99234.80
2023-03-12T15:29:49.852Z,99240.13
2023-03-12T15:39:55.265Z,99245.39
2023-03-12T15:50:08.118Z,99255.60
2023-03-12T16:00:15.021Z,99251.36
2023-03-12T16:10:22.829Z,99254.59
2023-03-12T16:20:27.134Z,99250.25
2023-03-12T16:30:35.180Z,99259.95
2023-03-12T16:40:43.759Z,99260.25
2023-03-12T16:50:52.750Z,99275.31
2023-03-12T17:00:57.814Z,99290.40
2023-03-12T17:11:01.831Z,99312.27
2023-03-12T17:21:05.849Z,99324.29
2023-03-12T17:31:10.136Z,99336.23
2023-03-12T17:41:26.163Z,99329.96
2023-03-12T17:51:32.143Z,99321.13
2023-03-12T18:01:35.936Z,99323.05
2023-03-12T18:11:39.964Z,99336.85
2023-03-12T18:21:44.664Z,99350.91
2023-03-12T18:32:09.312Z,99369.78
2023-03-12T18:42:13.341Z,99387.10
2023-03-12T18:52:17.071Z,99387.75
2023-03-12T19:02:24.127Z,99397.73
2023-03-12T19:12:28.363Z,99403.02
2023-03-12T19:22:33.514Z,99399.33
2023-03-12T19:32:43.684Z,99405.73
2023-03-12T19:42:48.520Z,99405.36
2023-03-12T19:52:52.449Z,99411.53
2023-03-12T20:02:57.222Z,99424.95
2023-03-12T20:13:01.363Z,99418.91
2023-03-12T20:23:05.522Z,99410.54
2023-03-12T20:33:13.094Z,99419.81
2023-03-12T20:43:17.211Z,99411.15
2023-03-12T20:53:21.033Z,99398.87
2023-03-12T21:03:25.921Z,99408.16
2023-03-12T21:13:31.111Z,99412.39
2023-03-12T21:23:35.329Z,99415.08
2023-03-12T21:33:41.623Z,99407.15
2023-03-12T21:43:46.987Z,99393.88
2023-03-12T21:53:55.562Z,99389.00
2023-03-12T22:04:01.365Z,99378.72
2023-03-12T22:14:05.491Z,99362.81
2023-03-12T22:24:09.455Z,99359.15
2023-03-12T22:34:13.550Z,99350.81
2023-03-12T22:44:17.329Z,99351.60
2023-03-12T22:54:21.006Z,99360.23
2023-03-12T23:04:24.735Z,99342.57
2023-03-12T23:14:28.313Z,99344.60
2023-03-12T23:24:32.114Z,99339.73
2023-03-12T23:34:35.730Z,99316.15
2023-03-12T23:44:39.721Z,99325.09
2023-03-12T23:54:43.287Z,99317.64
